Weather observations for the past three days for
Van Nuys, Van Nuys Airport
| Date | Time (pdt) | Wind (mph) | Vis. (mi.) | Weather | Sky Cond. | Temperature (ºF) | Relative Humidity | Wind Chill (°F) | Heat Index (°F) | Pressure | Precipitation (in) | ||||||
|---|---|---|---|---|---|---|---|---|---|---|---|---|---|---|---|---|---|
| Air | Dwpt | 6 hour | altimeter (in) | sea level (mb) | 1 hr | 3 hr | 6 hr | ||||||||||
| Max. | Min. | ||||||||||||||||
| 30 | 22:51 | E 6 | 10.00 | Fair | CLR | 73.9 | 57 | 90 | 73.9 | 56% | 29.88 | 1010.9 | |||||
| 30 | 21:51 | E 5 | 10.00 | Fair | CLR | 75.9 | 57 | 52% | 78 | 29.88 | 1010.8 | ||||||
| 30 | 20:51 | E 6 | 10.00 | Fair | CLR | 75.9 | 55.9 | 50% | 78 | 29.86 | 1010.3 | ||||||
| 30 | 19:51 | SE 7 | 10.00 | Fair | CLR | 78.1 | 57.9 | 50% | 79 | 29.84 | 1009.5 | ||||||
| 30 | 18:51 | SE 10 | 10.00 | Fair | CLR | 82 | 59 | 46% | 82 | 29.82 | 1008.9 | ||||||
| 30 | 17:51 | SE 12 | 10.00 | Fair | CLR | 87.1 | 57 | 36% | 86 | 29.82 | 1008.8 | ||||||
| 30 | 16:51 | SE 10 | 10.00 | Fair | CLR | 90 | 57.9 | 93 | 84 | 34% | 89 | 29.82 | 1008.5 | ||||
| 30 | 15:51 | SE 12 | 10.00 | Fair | CLR | 91 | 59 | 34% | 90 | 29.83 | 1009.0 | ||||||
| 30 | 14:51 | SE 12 | 10.00 | Fair | CLR | 90 | 59 | 35% | 89 | 29.86 | 1009.9 | ||||||
| 30 | 13:51 | S 8 | 10.00 | Fair | CLR | 91 | 59 | 34% | 90 | 29.87 | 1010.4 | ||||||
| 30 | 12:51 | S 3 | 10.00 | Fair | CLR | 89.1 | 61 | 39% | 89 | 29.88 | 1010.7 | ||||||
| 30 | 11:51 | Vrbl 7 | 10.00 | Fair | CLR | 87.1 | 62.1 | 43% | 88 | 29.9 | 1011.3 | ||||||
| 30 | 10:51 | SE 9 | 10.00 | Fair | CLR | 84 | 62.1 | 84.9 | 71.1 | 48% | 85 | 29.9 | 1011.3 | ||||
| 30 | 09:51 | Calm | 10.00 | Fair | CLR | 78.1 | 62.1 | 58% | 80 | 29.9 | 1011.5 | ||||||
| 30 | 08:51 | Calm | 10.00 | Fair | CLR | 75 | 63 | 66% | 77 | 29.9 | 1011.6 | ||||||
| 30 | 07:51 | Calm | 10.00 | Fair | CLR | 73.9 | 62.1 | 67% | 29.91 | 1011.7 | |||||||
| 30 | 06:51 | SE 3 | 10.00 | Fair | CLR | 72 | 62.1 | 71% | 29.89 | 1011.1 | |||||||
| 30 | 05:51 | Calm | 10.00 | Fair | CLR | 73 | 63 | 71% | 29.87 | 1010.5 | |||||||
| 30 | 04:51 | Calm | 10.00 | Fair | CLR | 73 | 62.1 | 80.1 | 73 | 69% | 29.87 | 1010.3 | |||||
| 30 | 03:51 | Calm | 10.00 | Fair | CLR | 73 | 62.1 | 69% | 29.86 | 1010.2 | |||||||
| 30 | 02:51 | Calm | 10.00 | Fair | CLR | 73 | 63 | 71% | 29.86 | 1010.1 | |||||||
| 30 | 01:51 | Calm | 10.00 | Fair | CLR | 73.9 | 64 | 71% | 29.85 | 1009.8 | |||||||
| 30 | 00:51 | SE 6 | 10.00 | Fair | CLR | 75.9 | 63 | 64% | 78 | 29.86 | 1010.2 | ||||||
| 29 | 23:51 | E 5 | 10.00 | Fair | CLR | 78.1 | 62.1 | 58% | 80 | 29.85 | 1009.7 | ||||||
| 29 | 22:51 | E 5 | 10.00 | Fair | CLR | 80.1 | 63 | 95 | 80.1 | 56% | 81 | 29.84 | 1009.4 | ||||
| 29 | 21:51 | Calm | 10.00 | Fair | CLR | 80.1 | 61 | 52% | 81 | 29.85 | 1009.6 | ||||||
| 29 | 20:51 | E 5 | 10.00 | Fair | CLR | 82 | 60.1 | 47% | 82 | 29.84 | 1009.3 | ||||||
| 29 | 19:51 | E 5 | 10.00 | Fair | CLR | 84.9 | 60.1 | 43% | 85 | 29.82 | 1008.5 | ||||||
| 29 | 18:51 | SE 3 | 10.00 | Fair | CLR | 88 | 60.1 | 39% | 88 | 29.81 | 1008.3 | ||||||
| 29 | 17:51 | E 8 | 10.00 | Fair | CLR | 93.9 | 57.9 | 30% | 93 | 29.8 | 1008.0 | ||||||
| 29 | 16:51 | SE 13 | 10.00 | Fair | CLR | 95 | 55 | 97 | 88 | 26% | 93 | 29.81 | 1008.0 | ||||
| 29 | 15:51 | SE 13 | 10.00 | Fair | CLR | 97 | 55 | 24% | 95 | 29.81 | 1008.4 | ||||||
| 29 | 14:51 | SE 12 | 10.00 | Fair | CLR | 96.1 | 55 | 25% | 94 | 29.84 | 1009.2 | ||||||
| 29 | 13:51 | SE 14 | 10.00 | Fair | CLR | 95 | 55.9 | 27% | 93 | 29.86 | 1010.0 | ||||||
| 29 | 12:51 | S 7 G 17 | 10.00 | Fair | CLR | 93.9 | 62.1 | 35% | 95 | 29.88 | 1010.5 | ||||||
| 29 | 11:51 | SE 9 | 10.00 | Fair | CLR | 91.9 | 63 | 38% | 93 | 29.9 | 1011.3 | ||||||
| 29 | 10:51 | S 7 | 10.00 | Fair | CLR | 88 | 64.9 | 89.1 | 75 | 46% | 90 | 29.91 | 1011.6 | ||||
| 29 | 09:51 | SE 6 | 10.00 | Fair | CLR | 84.9 | 64 | 50% | 86 | 29.91 | 1011.7 | ||||||
| 29 | 08:51 | Calm | 10.00 | Fair | CLR | 81 | 64.9 | 58% | 83 | 29.91 | 1011.7 | ||||||
| 29 | 07:51 | Calm | 10.00 | Fair | CLR | 78.1 | 66 | 67% | 80 | 29.91 | 1011.6 | ||||||
| 29 | 06:51 | Calm | 10.00 | Fair | CLR | 75 | 64.9 | 71% | 77 | 29.89 | 1011.1 | ||||||
| 29 | 05:51 | E 3 | 10.00 | Fair | CLR | 77 | 63 | 62% | 79 | 29.88 | 1010.7 | ||||||
| 29 | 04:51 | SE 3 | 10.00 | Fair | CLR | 78.1 | 63 | 87.1 | 77 | 60% | 80 | 29.88 | 1010.5 | ||||
| 29 | 03:51 | Calm | 10.00 | Fair | CLR | 78.1 | 64 | 62% | 80 | 29.87 | 1010.2 | ||||||
| 29 | 02:51 | E 5 | 10.00 | Fair | CLR | 78.1 | 64 | 62% | 80 | 29.87 | 1010.2 | ||||||
| 29 | 01:51 | E 5 | 10.00 | Fair | CLR | 80.1 | 63 | 56% | 81 | 29.87 | 1010.2 | ||||||
| 29 | 00:51 | E 6 | 10.00 | Fair | CLR | 81 | 63 | 54% | 82 | 29.87 | 1010.3 | ||||||
| 28 | 23:51 | E 8 | 10.00 | Fair | CLR | 82.9 | 62.1 | 49% | 84 | 29.86 | 1009.9 | ||||||
| 28 | 22:51 | Calm | 10.00 | Fair | CLR | 87.1 | 57 | 100 | 87.1 | 36% | 86 | 29.85 | 1009.6 | ||||
| 28 | 21:51 | W 5 | 10.00 | Fair | CLR | 88 | 55.9 | 34% | 86 | 29.85 | 1009.5 | ||||||
| 28 | 20:51 | SW 6 | 10.00 | Fair | CLR | 90 | 55.9 | 32% | 88 | 29.84 | 1009.2 | ||||||
| 28 | 19:51 | W 5 | 10.00 | Fair | CLR | 93 | 55 | 28% | 91 | 29.82 | 1008.6 | ||||||
| 28 | 18:51 | W 7 | 10.00 | Fair | CLR | 95 | 55 | 26% | 93 | 29.83 | 1008.8 | ||||||
| 28 | 17:51 | NW 10 | 10.00 | Fair | CLR | 96.1 | 53.1 | 23% | 94 | 29.83 | 1008.8 | ||||||
| 28 | 16:51 | W 9 G 20 | 10.00 | Fair | CLR | 100 | 53.1 | 105.1 | 93.9 | 21% | 98 | 29.82 | 1008.5 | ||||
| 28 | 15:51 | W 12 G 23 | 10.00 | Fair | CLR | 100 | 54 | 21% | 98 | 29.83 | 1008.8 | ||||||
| 28 | 14:51 | W 10 | 10.00 | Fair | CLR | 102 | 55.9 | 22% | 101 | 29.85 | 1009.5 | ||||||
| 28 | 13:51 | SE 9 | 10.00 | Fair | CLR | 102 | 62.1 | 27% | 104 | 29.86 | 1009.8 | ||||||
| 28 | 12:51 | SE 6 | 10.00 | Fair | CLR | 99 | 63 | 31% | 101 | 29.88 | 1010.5 | ||||||
| 28 | 11:51 | Calm | 10.00 | Fair | CLR | 98.1 | 62.1 | 31% | 99 | 29.9 | 1011.1 | ||||||
| 28 | 10:51 | Calm | 10.00 | Fair | CLR | 93.9 | 60.1 | 93.9 | 77 | 32% | 94 | 29.9 | 1011.4 | ||||
| 28 | 09:51 | Calm | 10.00 | Fair | CLR | 88 | 64 | 45% | 89 | 29.9 | 1011.3 | ||||||
| 28 | 08:51 | Calm | 10.00 | Fair | CLR | 82.9 | 66.9 | 59% | 86 | 29.89 | 1010.9 | ||||||
| 28 | 07:51 | Calm | 10.00 | Fair | CLR | 80.1 | 66.9 | 64% | 82 | 29.89 | 1011.0 | ||||||
| 28 | 06:51 | Calm | 10.00 | Fair | CLR | 78.1 | 66.9 | 69% | 80 | 29.89 | 1010.9 | ||||||
| 28 | 05:51 | E 3 | 10.00 | Fair | CLR | 78.1 | 66.9 | 69% | 80 | 29.86 | 1009.8 | ||||||
| 28 | 04:51 | Calm | 10.00 | Fair | CLR | 78.1 | 64 | 82 | 78.1 | 62% | 80 | 29.85 | 1009.5 | ||||
| 28 | 03:51 | Calm | 10.00 | Fair | CLR | 80.1 | 66.9 | 64% | 82 | 29.85 | 1009.5 | ||||||
| 28 | 02:51 | Calm | 10.00 | Fair | CLR | 80.1 | 66.9 | 64% | 82 | 29.85 | 1009.4 | ||||||
| 28 | 01:51 | Calm | 10.00 | Fair | CLR | 81 | 66.9 | 62% | 83 | 29.85 | 1009.4 | ||||||
| 28 | 00:51 | SE 3 | 10.00 | Fair | CLR | 82 | 68 | 63% | 85 | 29.85 | 1009.6 | ||||||
| 27 | 23:51 | N 3 | 10.00 | Fair | CLR | 82 | 66.9 | 60% | 85 | 29.85 | 1009.4 | ||||||
| Date | Time (pdt) | Wind (mph) | Vis. (mi.) | Weather | Sky Cond. | Air | Dwpt | Max. | Min. | Relative Humidity | Wind Chill (°F) | Heat Index (°F) | altimeter (in) | sea level (mb) | 1 hr | 3 hr | 6 hr |
| 6 hour | |||||||||||||||||
| Temperature (ºF) | Pressure | Precipitation (in) | |||||||||||||||